Terminal Aerodrome Forecast
Issued by NWS Green Bay, WI

Home | Current Version | Previous Version | Graphics & Text | Print | Product List | Glossary On
Versions: 1 2 3 4 5 6 7 8 9 10 11 12 13 14 15 16 17 18 19 20 21 22 23 24 25 26 27 28 29 30 31 32 33 34 35 36 37 38 39 40
626
FTUS43 KGRB 291720
TAFGRB
TAF
KGRB 291720Z 2918/3018 04009KT P6SM BKN200
     FM300000 05008KT P6SM BKN090
     FM300300 05007KT P6SM VCSH BKN070
      TEMPO 3003/3007 4SM -RA BKN040
     FM300800 06008KT 4SM -RASN OVC035
      TEMPO 3009/3013 2SM -SN BKN018
     FM301300 05012G19KT 3SM -RASN BKN015
     FM301600 04014G24KT 3SM -RA OVC015=

USA.gov is the U.S. government's official web portal to all federal, state and local government web resources and services.